GLD1794 SGAS-SASA
Flight info
| Callsign | GLD1794 |
|---|---|
| Flight time | 1h 23m |
| Altitude | 32000 |
| Route | KALOM KALOM UM789 JUJ |
| Aircraft | A319/M-SDE3FGHIRWY/LB1 |
Departure
| Time | 2026-05-07 12:06 |
|---|---|
| Airport | Silvio Pettirossi International Airport (SGAS) |
Arrival
| Time | 2026-05-07 13:30 |
|---|---|
| Airport | Martín Miguel de Güemes International Airport (SASA) |
| Time | Latitude | Longitude | Altitude | Speed | Heading |
|---|---|---|---|---|---|
| 2026-05-07 11:48 | -25.24418 | -57.51609 | 285 ft | 0 kts | 166° |
| 2026-05-07 12:00 | -25.24419 | -57.51608 | 285 ft | 0 kts | 165° |
| 2026-05-07 12:00 | -25.24425 | -57.51601 | 287 ft | 4 kts | 131° |
| 2026-05-07 12:01 | -25.24404 | -57.51577 | 284 ft | 7 kts | 14° |
| 2026-05-07 12:01 | -25.24339 | -57.51594 | 284 ft | 12 kts | 322° |
| 2026-05-07 12:01 | -25.24343 | -57.51676 | 286 ft | 12 kts | 240° |
| 2026-05-07 12:01 | -25.24390 | -57.51755 | 285 ft | 13 kts | 236° |
| 2026-05-07 12:02 | -25.24463 | -57.51811 | 286 ft | 14 kts | 195° |
| 2026-05-07 12:02 | -25.24562 | -57.51836 | 287 ft | 15 kts | 191° |
| 2026-05-07 12:02 | -25.24666 | -57.51862 | 288 ft | 16 kts | 194° |
| 2026-05-07 12:02 | -25.24774 | -57.51887 | 290 ft | 16 kts | 192° |
| 2026-05-07 12:03 | -25.24878 | -57.51912 | 292 ft | 15 kts | 192° |
| 2026-05-07 12:03 | -25.24976 | -57.51935 | 292 ft | 14 kts | 192° |
| 2026-05-07 12:03 | -25.25068 | -57.51959 | 298 ft | 13 kts | 193° |
| 2026-05-07 12:03 | -25.25155 | -57.51980 | 296 ft | 12 kts | 192° |
| 2026-05-07 12:04 | -25.25243 | -57.52002 | 295 ft | 13 kts | 192° |
| 2026-05-07 12:04 | -25.25336 | -57.52024 | 300 ft | 14 kts | 192° |
| 2026-05-07 12:04 | -25.25435 | -57.52048 | 299 ft | 15 kts | 192° |
| 2026-05-07 12:04 | -25.25479 | -57.52131 | 300 ft | 15 kts | 279° |
| 2026-05-07 12:05 | -25.25452 | -57.52241 | 300 ft | 14 kts | 303° |
| 2026-05-07 12:05 | -25.25381 | -57.52253 | 300 ft | 0 kts | 16° |
| 2026-05-07 12:05 | -25.25340 | -57.52242 | 299 ft | 27 kts | 13° |
| 2026-05-07 12:05 | -25.24894 | -57.52134 | 295 ft | 100 kts | 12° |
| 2026-05-07 12:06 | -25.24017 | -57.51921 | 294 ft | 154 kts | 12° |
| 2026-05-07 12:06 | -25.22981 | -57.51665 | 884 ft | 150 kts | 15° |
| 2026-05-07 12:06 | -25.21976 | -57.51384 | 1597 ft | 146 kts | 13° |
| 2026-05-07 12:06 | -25.21005 | -57.51124 | 2227 ft | 150 kts | 9° |
| 2026-05-07 12:07 | -25.19905 | -57.50869 | 2460 ft | 174 kts | 9° |
| 2026-05-07 12:07 | -25.18634 | -57.50580 | 2800 ft | 199 kts | 9° |
| 2026-05-07 12:07 | -25.17203 | -57.50249 | 3272 ft | 217 kts | 9° |
| 2026-05-07 12:07 | -25.15700 | -57.49895 | 4059 ft | 224 kts | 8° |
| 2026-05-07 12:08 | -25.14159 | -57.49529 | 4889 ft | 229 kts | 6° |
| 2026-05-07 12:08 | -25.12562 | -57.49428 | 5689 ft | 231 kts | 353° |
| 2026-05-07 12:08 | -25.10986 | -57.49807 | 6506 ft | 235 kts | 339° |
| 2026-05-07 12:08 | -25.09539 | -57.50647 | 7263 ft | 242 kts | 326° |
| 2026-05-07 12:09 | -25.08298 | -57.51955 | 8026 ft | 252 kts | 311° |
| 2026-05-07 12:09 | -25.07415 | -57.53667 | 8786 ft | 263 kts | 296° |
| 2026-05-07 12:09 | -25.07024 | -57.55684 | 9535 ft | 277 kts | 278° |
| 2026-05-07 12:09 | -25.07232 | -57.57847 | 10215 ft | 292 kts | 260° |
| 2026-05-07 12:10 | -25.08037 | -57.59965 | 10704 ft | 310 kts | 250° |
| 2026-05-07 12:10 | -25.09006 | -57.62200 | 10863 ft | 334 kts | 250° |
| 2026-05-07 12:10 | -25.10033 | -57.64544 | 11093 ft | 352 kts | 249° |
| 2026-05-07 12:10 | -25.11117 | -57.66998 | 11645 ft | 358 kts | 249° |
| 2026-05-07 12:11 | -25.12217 | -57.69484 | 12304 ft | 361 kts | 249° |
| 2026-05-07 12:11 | -25.13321 | -57.71991 | 12931 ft | 363 kts | 249° |
| 2026-05-07 12:11 | -25.14424 | -57.74510 | 13537 ft | 366 kts | 249° |
| 2026-05-07 12:11 | -25.15538 | -57.77059 | 14077 ft | 368 kts | 249° |
| 2026-05-07 12:12 | -25.16650 | -57.79614 | 14616 ft | 370 kts | 249° |
| 2026-05-07 12:12 | -25.17769 | -57.82189 | 15162 ft | 372 kts | 249° |
| 2026-05-07 12:12 | -25.18892 | -57.84776 | 15719 ft | 374 kts | 249° |
| 2026-05-07 12:12 | -25.19848 | -57.87437 | 16255 ft | 372 kts | 258° |
| 2026-05-07 12:13 | -25.20305 | -57.90231 | 16814 ft | 369 kts | 269° |
| 2026-05-07 12:13 | -25.20264 | -57.93025 | 17358 ft | 369 kts | 277° |
| 2026-05-07 12:13 | -25.20067 | -57.95858 | 17928 ft | 371 kts | 277° |
| 2026-05-07 12:13 | -25.19872 | -57.98710 | 18439 ft | 373 kts | 276° |
| 2026-05-07 12:14 | -25.19683 | -58.01575 | 18962 ft | 375 kts | 276° |
| 2026-05-07 12:14 | -25.19499 | -58.04448 | 19502 ft | 375 kts | 276° |
| 2026-05-07 12:14 | -25.19314 | -58.07334 | 20059 ft | 376 kts | 276° |
| 2026-05-07 12:14 | -25.19127 | -58.10219 | 20609 ft | 377 kts | 276° |
| 2026-05-07 12:15 | -25.18936 | -58.13117 | 21149 ft | 378 kts | 276° |
| 2026-05-07 12:15 | -25.18747 | -58.15977 | 21659 ft | 378 kts | 276° |
| 2026-05-07 12:15 | -25.18521 | -58.18874 | 22177 ft | 379 kts | 277° |
| 2026-05-07 12:15 | -25.18249 | -58.21777 | 22657 ft | 381 kts | 277° |
| 2026-05-07 12:16 | -25.17950 | -58.24694 | 23154 ft | 382 kts | 278° |
| 2026-05-07 12:16 | -25.17645 | -58.27615 | 23583 ft | 383 kts | 278° |
| 2026-05-07 12:16 | -25.17345 | -58.30546 | 23993 ft | 384 kts | 277° |
| 2026-05-07 12:16 | -25.17050 | -58.33480 | 24397 ft | 385 kts | 277° |
| 2026-05-07 12:17 | -25.16760 | -58.36421 | 24795 ft | 386 kts | 277° |
| 2026-05-07 12:17 | -25.16473 | -58.39370 | 25184 ft | 386 kts | 277° |
| 2026-05-07 12:17 | -25.16184 | -58.42323 | 25578 ft | 387 kts | 277° |
| 2026-05-07 12:17 | -25.15891 | -58.45282 | 25972 ft | 388 kts | 278° |
| 2026-05-07 12:18 | -25.15600 | -58.48211 | 26360 ft | 389 kts | 278° |
| 2026-05-07 12:18 | -25.15300 | -58.51221 | 26760 ft | 390 kts | 278° |
| 2026-05-07 12:18 | -25.15007 | -58.54166 | 27144 ft | 391 kts | 278° |
| 2026-05-07 12:18 | -25.14711 | -58.57151 | 27523 ft | 392 kts | 278° |
| 2026-05-07 12:19 | -25.14415 | -58.60146 | 27888 ft | 393 kts | 278° |
| 2026-05-07 12:19 | -25.14116 | -58.63146 | 28243 ft | 394 kts | 278° |
| 2026-05-07 12:19 | -25.13816 | -58.66155 | 28586 ft | 395 kts | 278° |
| 2026-05-07 12:19 | -25.13513 | -58.69177 | 28930 ft | 396 kts | 278° |
| 2026-05-07 12:20 | -25.13211 | -58.72204 | 29264 ft | 397 kts | 278° |
| 2026-05-07 12:20 | -25.12909 | -58.75233 | 29592 ft | 398 kts | 278° |
| 2026-05-07 12:20 | -25.12607 | -58.78272 | 29892 ft | 399 kts | 278° |
| 2026-05-07 12:20 | -25.12302 | -58.81319 | 30162 ft | 399 kts | 278° |
| 2026-05-07 12:21 | -25.11996 | -58.84359 | 30550 ft | 397 kts | 278° |
| 2026-05-07 12:21 | -25.11689 | -58.87380 | 30960 ft | 394 kts | 278° |
| 2026-05-07 12:21 | -25.11381 | -58.90379 | 31365 ft | 392 kts | 278° |
| 2026-05-07 12:21 | -25.11075 | -58.93356 | 31664 ft | 390 kts | 278° |
| 2026-05-07 12:22 | -25.10771 | -58.96319 | 31735 ft | 385 kts | 278° |
| 2026-05-07 12:22 | -25.10177 | -59.02107 | 31734 ft | 382 kts | 277° |
| 2026-05-07 12:23 | -25.09589 | -59.07936 | 31736 ft | 382 kts | 277° |
| 2026-05-07 12:23 | -25.08995 | -59.13756 | 31732 ft | 381 kts | 277° |
| 2026-05-07 12:24 | -25.08394 | -59.19578 | 31737 ft | 381 kts | 277° |
| 2026-05-07 12:24 | -25.07790 | -59.25397 | 31735 ft | 381 kts | 278° |
| 2026-05-07 12:25 | -25.07178 | -59.31210 | 31724 ft | 381 kts | 278° |
| 2026-05-07 12:25 | -25.06570 | -59.36992 | 31744 ft | 381 kts | 278° |
| 2026-05-07 12:26 | -25.05966 | -59.42799 | 31737 ft | 380 kts | 278° |
| 2026-05-07 12:26 | -25.05355 | -59.48604 | 31728 ft | 380 kts | 278° |
| 2026-05-07 12:27 | -25.04742 | -59.54394 | 31726 ft | 380 kts | 278° |
| 2026-05-07 12:27 | -25.04129 | -59.60185 | 31733 ft | 380 kts | 278° |
| 2026-05-07 12:28 | -25.03617 | -59.64998 | 31738 ft | 380 kts | 278° |
| 2026-05-07 12:28 | -25.02901 | -59.71716 | 31729 ft | 379 kts | 278° |
| 2026-05-07 12:29 | -25.02424 | -59.76561 | 31724 ft | 379 kts | 277° |
| 2026-05-07 12:29 | -25.01876 | -59.82295 | 31721 ft | 378 kts | 277° |
| 2026-05-07 12:30 | -25.01325 | -59.88073 | 31710 ft | 378 kts | 277° |
| 2026-05-07 12:30 | -25.00766 | -59.93834 | 31722 ft | 377 kts | 277° |
| 2026-05-07 12:31 | -25.00203 | -59.99543 | 31716 ft | 376 kts | 278° |
| 2026-05-07 12:31 | -24.99624 | -60.05272 | 31708 ft | 376 kts | 278° |
| 2026-05-07 12:32 | -24.99053 | -60.10995 | 31702 ft | 376 kts | 277° |
| 2026-05-07 12:32 | -24.98490 | -60.16721 | 31698 ft | 376 kts | 277° |
| 2026-05-07 12:33 | -24.97635 | -60.25300 | 31707 ft | 374 kts | 278° |
| 2026-05-07 12:33 | -24.97059 | -60.30997 | 31695 ft | 374 kts | 278° |
| 2026-05-07 12:34 | -24.96478 | -60.36694 | 31689 ft | 373 kts | 278° |
| 2026-05-07 12:34 | -24.95905 | -60.42387 | 31683 ft | 374 kts | 278° |
| 2026-05-07 12:35 | -24.95323 | -60.48083 | 31706 ft | 374 kts | 278° |
| 2026-05-07 12:35 | -24.94743 | -60.53736 | 31700 ft | 373 kts | 278° |
| 2026-05-07 12:36 | -24.94160 | -60.59410 | 31693 ft | 372 kts | 278° |
| 2026-05-07 12:36 | -24.93581 | -60.65073 | 31652 ft | 372 kts | 278° |
| 2026-05-07 12:37 | -24.92993 | -60.70749 | 31640 ft | 372 kts | 278° |
| 2026-05-07 12:37 | -24.92402 | -60.76428 | 31662 ft | 373 kts | 278° |
| 2026-05-07 12:38 | -24.91802 | -60.82101 | 31659 ft | 372 kts | 278° |
| 2026-05-07 12:38 | -24.91211 | -60.87734 | 31651 ft | 372 kts | 278° |
| 2026-05-07 12:39 | -24.90622 | -60.93391 | 31650 ft | 372 kts | 278° |
| 2026-05-07 12:39 | -24.90024 | -60.99049 | 31640 ft | 372 kts | 278° |
| 2026-05-07 12:40 | -24.89423 | -61.04707 | 31683 ft | 372 kts | 278° |
| 2026-05-07 12:40 | -24.88820 | -61.10373 | 31672 ft | 372 kts | 278° |
| 2026-05-07 12:41 | -24.88216 | -61.16030 | 31665 ft | 371 kts | 278° |
| 2026-05-07 12:41 | -24.87611 | -61.21680 | 31658 ft | 371 kts | 278° |
| 2026-05-07 12:42 | -24.87010 | -61.27324 | 31651 ft | 371 kts | 278° |
| 2026-05-07 12:42 | -24.86404 | -61.32937 | 31649 ft | 371 kts | 278° |
| 2026-05-07 12:43 | -24.85785 | -61.38585 | 31661 ft | 371 kts | 278° |
| 2026-05-07 12:43 | -24.85172 | -61.44234 | 31654 ft | 371 kts | 278° |
| 2026-05-07 12:44 | -24.84564 | -61.49882 | 31650 ft | 371 kts | 278° |
| 2026-05-07 12:44 | -24.83951 | -61.55495 | 31609 ft | 371 kts | 278° |
| 2026-05-07 12:45 | -24.83331 | -61.61143 | 31618 ft | 371 kts | 278° |
| 2026-05-07 12:45 | -24.82707 | -61.66781 | 31622 ft | 371 kts | 278° |
| 2026-05-07 12:46 | -24.82087 | -61.72428 | 31621 ft | 371 kts | 278° |
| 2026-05-07 12:46 | -24.81122 | -61.77985 | 31621 ft | 370 kts | 285° |
| 2026-05-07 12:47 | -24.79760 | -61.83456 | 31624 ft | 370 kts | 285° |
| 2026-05-07 12:47 | -24.78422 | -61.88896 | 31625 ft | 370 kts | 284° |
| 2026-05-07 12:48 | -24.77345 | -61.94429 | 31646 ft | 371 kts | 278° |
| 2026-05-07 12:48 | -24.76735 | -62.00067 | 31639 ft | 371 kts | 278° |
| 2026-05-07 12:49 | -24.76115 | -62.05717 | 31635 ft | 371 kts | 278° |
| 2026-05-07 12:49 | -24.75482 | -62.11363 | 31633 ft | 372 kts | 278° |
| 2026-05-07 12:50 | -24.74847 | -62.16976 | 31633 ft | 372 kts | 278° |
| 2026-05-07 12:50 | -24.74218 | -62.22624 | 31633 ft | 372 kts | 278° |
| 2026-05-07 12:51 | -24.73586 | -62.28277 | 31631 ft | 372 kts | 278° |
| 2026-05-07 12:51 | -24.72947 | -62.33938 | 31623 ft | 373 kts | 278° |
| 2026-05-07 12:52 | -24.72308 | -62.39604 | 31605 ft | 373 kts | 278° |
| 2026-05-07 12:52 | -24.71673 | -62.45236 | 31615 ft | 373 kts | 278° |
| 2026-05-07 12:53 | -24.71026 | -62.50894 | 31622 ft | 373 kts | 278° |
| 2026-05-07 12:53 | -24.70378 | -62.56558 | 31625 ft | 373 kts | 278° |
| 2026-05-07 12:54 | -24.69731 | -62.62234 | 31630 ft | 374 kts | 278° |
| 2026-05-07 12:54 | -24.69079 | -62.67928 | 31641 ft | 374 kts | 278° |
| 2026-05-07 12:55 | -24.68427 | -62.73580 | 31636 ft | 374 kts | 278° |
| 2026-05-07 12:55 | -24.67776 | -62.79260 | 31644 ft | 374 kts | 278° |
| 2026-05-07 12:56 | -24.67123 | -62.84936 | 31652 ft | 374 kts | 278° |
| 2026-05-07 12:56 | -24.66467 | -62.90614 | 31655 ft | 374 kts | 278° |
| 2026-05-07 12:57 | -24.65802 | -62.96290 | 31640 ft | 374 kts | 278° |
| 2026-05-07 12:57 | -24.65143 | -63.01958 | 31642 ft | 374 kts | 278° |
| 2026-05-07 12:58 | -24.64481 | -63.07642 | 31638 ft | 374 kts | 278° |
| 2026-05-07 12:58 | -24.63815 | -63.13283 | 31661 ft | 374 kts | 278° |
| 2026-05-07 12:59 | -24.63142 | -63.18960 | 31655 ft | 375 kts | 278° |
| 2026-05-07 12:59 | -24.62467 | -63.24640 | 31614 ft | 375 kts | 278° |
| 2026-05-07 13:00 | -24.61802 | -63.30323 | 31649 ft | 374 kts | 278° |
| 2026-05-07 13:00 | -24.61140 | -63.36002 | 31662 ft | 374 kts | 278° |
| 2026-05-07 13:01 | -24.60472 | -63.41634 | 31677 ft | 374 kts | 278° |
| 2026-05-07 13:01 | -24.59801 | -63.47300 | 31686 ft | 374 kts | 278° |
| 2026-05-07 13:02 | -24.59122 | -63.52976 | 31690 ft | 375 kts | 278° |
| 2026-05-07 13:02 | -24.58441 | -63.58655 | 31688 ft | 375 kts | 278° |
| 2026-05-07 13:03 | -24.57756 | -63.64344 | 31707 ft | 375 kts | 278° |
| 2026-05-07 13:03 | -24.57073 | -63.69994 | 31702 ft | 375 kts | 278° |
| 2026-05-07 13:04 | -24.56381 | -63.75682 | 31727 ft | 375 kts | 278° |
| 2026-05-07 13:04 | -24.55697 | -63.81372 | 31718 ft | 376 kts | 278° |
| 2026-05-07 13:05 | -24.55005 | -63.87064 | 31715 ft | 376 kts | 278° |
| 2026-05-07 13:05 | -24.54307 | -63.92765 | 31712 ft | 376 kts | 278° |
| 2026-05-07 13:06 | -24.53606 | -63.98469 | 31710 ft | 376 kts | 278° |
| 2026-05-07 13:06 | -24.52906 | -64.04171 | 31721 ft | 376 kts | 278° |
| 2026-05-07 13:07 | -24.52209 | -64.09868 | 31725 ft | 377 kts | 277° |
| 2026-05-07 13:07 | -24.51523 | -64.15576 | 31736 ft | 377 kts | 277° |
| 2026-05-07 13:08 | -24.50833 | -64.21277 | 31695 ft | 377 kts | 277° |
| 2026-05-07 13:08 | -24.50139 | -64.26940 | 31716 ft | 376 kts | 277° |
| 2026-05-07 13:09 | -24.49442 | -64.32631 | 31715 ft | 376 kts | 277° |
| 2026-05-07 13:09 | -24.48746 | -64.38327 | 31727 ft | 377 kts | 277° |
| 2026-05-07 13:10 | -24.48045 | -64.44048 | 31714 ft | 378 kts | 277° |
| 2026-05-07 13:10 | -24.47319 | -64.49767 | 31722 ft | 379 kts | 278° |
| 2026-05-07 13:11 | -24.46551 | -64.55498 | 31542 ft | 380 kts | 278° |
| 2026-05-07 13:11 | -24.46164 | -64.58372 | 31295 ft | 380 kts | 278° |
| 2026-05-07 13:11 | -24.45781 | -64.61220 | 30795 ft | 375 kts | 278° |
| 2026-05-07 13:12 | -24.45531 | -64.63091 | 30434 ft | 373 kts | 278° |
| 2026-05-07 13:12 | -24.45152 | -64.65933 | 29854 ft | 370 kts | 278° |
| 2026-05-07 13:12 | -24.44786 | -64.68699 | 29220 ft | 372 kts | 277° |
| 2026-05-07 13:12 | -24.44413 | -64.71519 | 28628 ft | 375 kts | 277° |
| 2026-05-07 13:13 | -24.44037 | -64.74360 | 28038 ft | 375 kts | 277° |
| 2026-05-07 13:13 | -24.43663 | -64.77182 | 27459 ft | 372 kts | 277° |
| 2026-05-07 13:13 | -24.43289 | -64.79985 | 26890 ft | 371 kts | 277° |
| 2026-05-07 13:13 | -24.42914 | -64.82776 | 26322 ft | 369 kts | 277° |
| 2026-05-07 13:14 | -24.42540 | -64.85557 | 25766 ft | 367 kts | 277° |
| 2026-05-07 13:14 | -24.42167 | -64.88335 | 25210 ft | 366 kts | 277° |
| 2026-05-07 13:14 | -24.41799 | -64.91091 | 24653 ft | 365 kts | 277° |
| 2026-05-07 13:14 | -24.41432 | -64.93847 | 24106 ft | 364 kts | 276° |
| 2026-05-07 13:15 | -24.41064 | -64.96590 | 23564 ft | 364 kts | 276° |
| 2026-05-07 13:15 | -24.40689 | -64.99337 | 22963 ft | 364 kts | 276° |
| 2026-05-07 13:15 | -24.40320 | -65.02043 | 22432 ft | 362 kts | 276° |
| 2026-05-07 13:15 | -24.40097 | -65.04775 | 21931 ft | 357 kts | 266° |
| 2026-05-07 13:16 | -24.40476 | -65.07451 | 21433 ft | 353 kts | 253° |
| 2026-05-07 13:16 | -24.41445 | -65.09923 | 20884 ft | 354 kts | 241° |
| 2026-05-07 13:16 | -24.42951 | -65.12055 | 20368 ft | 356 kts | 228° |
| 2026-05-07 13:16 | -24.44886 | -65.13776 | 19863 ft | 358 kts | 220° |
| 2026-05-07 13:17 | -24.46883 | -65.15390 | 19360 ft | 356 kts | 220° |
| 2026-05-07 13:17 | -24.48872 | -65.17000 | 18864 ft | 354 kts | 221° |
| 2026-05-07 13:17 | -24.50842 | -65.18598 | 18368 ft | 351 kts | 221° |
| 2026-05-07 13:17 | -24.52801 | -65.20194 | 17836 ft | 350 kts | 221° |
| 2026-05-07 13:18 | -24.54747 | -65.21780 | 17302 ft | 347 kts | 221° |
| 2026-05-07 13:18 | -24.56684 | -65.23357 | 16784 ft | 345 kts | 220° |
| 2026-05-07 13:18 | -24.58579 | -65.24900 | 16286 ft | 343 kts | 220° |
| 2026-05-07 13:18 | -24.60496 | -65.26463 | 15756 ft | 342 kts | 220° |
| 2026-05-07 13:19 | -24.62404 | -65.28020 | 15235 ft | 342 kts | 220° |
| 2026-05-07 13:19 | -24.64313 | -65.29579 | 14706 ft | 342 kts | 220° |
| 2026-05-07 13:19 | -24.66224 | -65.31136 | 14173 ft | 343 kts | 221° |
| 2026-05-07 13:19 | -24.68142 | -65.32701 | 13635 ft | 344 kts | 221° |
| 2026-05-07 13:20 | -24.70064 | -65.34269 | 13034 ft | 344 kts | 221° |
| 2026-05-07 13:20 | -24.71982 | -65.35836 | 12484 ft | 343 kts | 220° |
| 2026-05-07 13:20 | -24.73897 | -65.37401 | 11928 ft | 342 kts | 220° |
| 2026-05-07 13:20 | -24.75808 | -65.38963 | 11354 ft | 341 kts | 220° |
| 2026-05-07 13:21 | -24.77716 | -65.40519 | 10781 ft | 341 kts | 220° |
| 2026-05-07 13:21 | -24.79616 | -65.42066 | 10435 ft | 335 kts | 220° |
| 2026-05-07 13:21 | -24.81448 | -65.43560 | 10314 ft | 320 kts | 220° |
| 2026-05-07 13:21 | -24.83204 | -65.44994 | 10201 ft | 308 kts | 220° |
| 2026-05-07 13:22 | -24.84891 | -65.46373 | 10083 ft | 297 kts | 220° |
| 2026-05-07 13:22 | -24.86534 | -65.47718 | 9996 ft | 292 kts | 220° |
| 2026-05-07 13:22 | -24.88165 | -65.49057 | 10011 ft | 292 kts | 220° |
| 2026-05-07 13:22 | -24.89774 | -65.50380 | 10013 ft | 292 kts | 220° |
| 2026-05-07 13:23 | -24.91403 | -65.51718 | 10011 ft | 292 kts | 220° |
| 2026-05-07 13:23 | -24.93015 | -65.53038 | 10010 ft | 280 kts | 220° |
| 2026-05-07 13:23 | -24.94580 | -65.54239 | 10004 ft | 273 kts | 211° |
| 2026-05-07 13:23 | -24.96404 | -65.54855 | 9996 ft | 276 kts | 195° |
| 2026-05-07 13:24 | -24.98292 | -65.55219 | 9999 ft | 270 kts | 189° |
| 2026-05-07 13:24 | -25.00126 | -65.55115 | 9942 ft | 261 kts | 176° |
| 2026-05-07 13:24 | -25.01918 | -65.55018 | 9618 ft | 253 kts | 197° |
| 2026-05-07 13:24 | -25.03371 | -65.55912 | 9300 ft | 234 kts | 235° |
| 2026-05-07 13:25 | -25.03911 | -65.57483 | 8972 ft | 216 kts | 275° |
| 2026-05-07 13:25 | -25.03352 | -65.58929 | 8707 ft | 205 kts | 315° |
| 2026-05-07 13:25 | -25.02077 | -65.59571 | 8381 ft | 204 kts | 347° |
| 2026-05-07 13:25 | -25.00665 | -65.59709 | 7953 ft | 208 kts | 355° |
| 2026-05-07 13:26 | -24.99220 | -65.59841 | 7483 ft | 209 kts | 351° |
| 2026-05-07 13:26 | -24.97768 | -65.60035 | 7018 ft | 211 kts | 355° |
| 2026-05-07 13:26 | -24.96316 | -65.60025 | 6580 ft | 205 kts | 8° |
| 2026-05-07 13:26 | -24.95012 | -65.59665 | 6470 ft | 183 kts | 23° |
| 2026-05-07 13:27 | -24.93900 | -65.59006 | 6376 ft | 185 kts | 38° |
| 2026-05-07 13:27 | -24.92905 | -65.58101 | 6196 ft | 186 kts | 43° |
| 2026-05-07 13:27 | -24.91922 | -65.57187 | 5946 ft | 184 kts | 44° |
| 2026-05-07 13:27 | -24.90989 | -65.56281 | 5711 ft | 171 kts | 51° |
| 2026-05-07 13:28 | -24.90305 | -65.55301 | 5508 ft | 153 kts | 56° |
| 2026-05-07 13:28 | -24.89665 | -65.54396 | 5319 ft | 146 kts | 56° |
| 2026-05-07 13:28 | -24.89050 | -65.53532 | 5134 ft | 143 kts | 56° |
| 2026-05-07 13:28 | -24.88438 | -65.52670 | 4956 ft | 142 kts | 56° |
| 2026-05-07 13:29 | -24.87826 | -65.51807 | 4776 ft | 144 kts | 55° |
| 2026-05-07 13:29 | -24.87208 | -65.50932 | 4576 ft | 145 kts | 54° |
| 2026-05-07 13:29 | -24.86582 | -65.50045 | 4356 ft | 148 kts | 55° |
| 2026-05-07 13:29 | -24.85945 | -65.49150 | 4142 ft | 149 kts | 54° |
| 2026-05-07 13:30 | -24.85343 | -65.48297 | 4068 ft | 119 kts | 52° |
| 2026-05-07 13:30 | -24.85016 | -65.47836 | 4080 ft | 45 kts | 52° |
| 2026-05-07 13:30 | -24.84886 | -65.47657 | 4084 ft | 12 kts | 37° |
| 2026-05-07 13:30 | -24.84813 | -65.47674 | 4085 ft | 10 kts | 335° |
| 2026-05-07 13:31 | -24.84748 | -65.47704 | 4087 ft | 10 kts | 338° |
| 2026-05-07 13:31 | -24.84676 | -65.47735 | 4084 ft | 12 kts | 338° |
| 2026-05-07 13:31 | -24.84589 | -65.47777 | 4082 ft | 15 kts | 336° |
| 2026-05-07 13:31 | -24.84531 | -65.47853 | 4077 ft | 15 kts | 291° |
| 2026-05-07 13:32 | -24.84477 | -65.47961 | 4067 ft | 14 kts | 345° |
| 2026-05-07 13:32 | -24.84466 | -65.47934 | 4073 ft | 0 kts | 158° |